createdAt,value
2023-04-19T00:02:59.708Z,75.54
2023-04-19T00:07:03.583Z,75.82
2023-04-19T00:11:07.677Z,75.71
2023-04-19T00:15:11.752Z,75.96
2023-04-19T00:19:17.232Z,75.72
2023-04-19T00:23:20.396Z,75.79
2023-04-19T00:27:24.396Z,75.81
2023-04-19T00:31:27.798Z,75.75
2023-04-19T00:35:34.906Z,75.83
2023-04-19T00:39:38.323Z,75.62
2023-04-19T00:43:42.189Z,75.88
2023-04-19T00:47:45.423Z,75.59
2023-04-19T00:51:52.087Z,75.65
2023-04-19T00:55:57.241Z,75.49
2023-04-19T01:00:00.882Z,75.66
2023-04-19T01:04:06.679Z,75.66
2023-04-19T01:08:12.178Z,75.76
2023-04-19T01:12:15.541Z,75.71
2023-04-19T01:16:20.551Z,75.64
2023-04-19T01:20:24.075Z,75.61
2023-04-19T01:24:29.385Z,75.95
2023-04-19T01:28:32.563Z,75.57
2023-04-19T01:32:36.289Z,75.51
2023-04-19T01:36:39.618Z,75.20
2023-04-19T01:40:45.196Z,74.87
2023-04-19T01:44:48.527Z,74.61
2023-04-19T01:48:53.634Z,74.66
2023-04-19T01:52:57.209Z,75.25
2023-04-19T01:57:03.080Z,75.82
2023-04-19T02:01:06.264Z,76.37
2023-04-19T02:05:10.936Z,76.50
2023-04-19T02:09:14.210Z,76.88
2023-04-19T02:13:21.373Z,77.00
2023-04-19T02:17:25.892Z,76.90
2023-04-19T02:21:29.490Z,76.92
2023-04-19T02:25:33.464Z,76.92
2023-04-19T02:29:39.024Z,76.75
2023-04-19T02:33:42.540Z,76.76
2023-04-19T02:37:46.933Z,76.66
2023-04-19T02:41:50.482Z,76.59
2023-04-19T02:45:55.701Z,76.47
2023-04-19T02:49:58.968Z,76.20
2023-04-19T02:54:02.468Z,76.12
2023-04-19T02:58:06.403Z,75.86
2023-04-19T03:02:11.494Z,75.99
2023-04-19T03:06:16.544Z,75.83
2023-04-19T03:10:19.943Z,75.88
2023-04-19T03:14:23.878Z,76.15
2023-04-19T03:18:29.990Z,75.99
2023-04-19T03:22:35.206Z,75.91
2023-04-19T03:26:38.490Z,75.87
2023-04-19T03:30:42.220Z,75.84
2023-04-19T03:34:47.341Z,75.67
2023-04-19T03:38:50.643Z,75.41
2023-04-19T03:42:54.059Z,75.35
2023-04-19T03:46:57.934Z,75.17
2023-04-19T03:51:02.759Z,75.31
2023-04-19T03:55:07.124Z,74.97
2023-04-19T03:59:11.263Z,75.22
2023-04-19T04:03:15.147Z,75.46
2023-04-19T04:07:20.231Z,75.45
2023-04-19T04:11:23.947Z,75.40
2023-04-19T04:15:27.312Z,75.90
2023-04-19T04:19:31.055Z,75.79
2023-04-19T04:23:36.006Z,76.20
2023-04-19T04:27:39.957Z,76.10
2023-04-19T04:31:43.730Z,76.07
2023-04-19T04:35:48.622Z,76.02
2023-04-19T04:39:53.681Z,75.99
2023-04-19T04:44:11.389Z,76.06
2023-04-19T04:48:16.602Z,75.91
2023-04-19T04:52:20.205Z,76.12
2023-04-19T04:56:26.429Z,76.13
2023-04-19T05:00:30.147Z,76.38
2023-04-19T05:04:33.145Z,76.37
2023-04-19T05:08:37.011Z,76.59
2023-04-19T05:12:42.763Z,76.42
2023-04-19T05:16:46.970Z,76.34
2023-04-19T05:20:50.315Z,76.13
2023-04-19T05:24:53.474Z,76.22
2023-04-19T05:28:58.197Z,75.78
2023-04-19T05:33:02.075Z,76.17
2023-04-19T05:37:05.525Z,75.66
2023-04-19T05:41:08.816Z,75.84
2023-04-19T05:45:16.029Z,75.93
2023-04-19T05:49:19.382Z,75.98
2023-04-19T05:53:22.569Z,75.90
2023-04-19T05:57:26.373Z,75.63
2023-04-19T06:01:31.296Z,75.70
2023-04-19T06:05:35.213Z,75.42
2023-04-19T06:09:38.460Z,74.96
2023-04-19T06:13:42.284Z,74.43
2023-04-19T06:17:47.478Z,74.62
2023-04-19T06:21:51.863Z,74.25
2023-04-19T06:25:54.925Z,74.04
2023-04-19T06:29:58.459Z,73.50
2023-04-19T06:34:03.265Z,73.57
2023-04-19T06:38:06.843Z,73.00
2023-04-19T06:42:10.329Z,71.78
2023-04-19T06:46:14.402Z,72.59
2023-04-19T06:50:19.825Z,71.67
2023-04-19T06:54:23.258Z,71.20
2023-04-19T06:58:27.331Z,71.69
2023-04-19T07:02:30.906Z,70.63
2023-04-19T07:06:35.730Z,69.58
2023-04-19T07:10:39.151Z,68.11
2023-04-19T07:14:42.445Z,69.20
2023-04-19T07:18:46.238Z,68.43
2023-04-19T07:22:51.177Z,70.31
2023-04-19T07:26:54.674Z,70.07
2023-04-19T07:30:57.778Z,70.64
2023-04-19T07:35:01.406Z,71.06
2023-04-19T07:39:06.326Z,70.45
2023-04-19T07:43:10.442Z,70.05
2023-04-19T07:47:13.984Z,69.92
2023-04-19T07:51:20.100Z,69.88
2023-04-19T07:55:25.061Z,69.56
2023-04-19T07:59:28.679Z,70.05
2023-04-19T08:03:32.451Z,70.17
2023-04-19T08:07:36.329Z,70.33
2023-04-19T08:11:40.620Z,71.10
2023-04-19T08:19:51.198Z,70.96
2023-04-19T08:23:55.084Z,69.61
2023-04-19T08:27:59.502Z,70.44
2023-04-19T08:32:03.351Z,70.31
2023-04-19T08:36:07.340Z,69.77
2023-04-19T08:40:12.080Z,69.27
2023-04-19T08:44:32.552Z,70.20
2023-04-19T08:48:39.658Z,70.95
2023-04-19T08:52:53.992Z,71.41
2023-04-19T08:57:01.590Z,70.77
2023-04-19T09:01:17.095Z,70.25
2023-04-19T09:05:30.318Z,70.62
2023-04-19T09:09:40.696Z,70.35
2023-04-19T09:13:46.900Z,71.49
2023-04-19T09:18:05.147Z,70.69
2023-04-19T09:22:15.708Z,69.76
2023-04-19T09:26:23.507Z,69.28
2023-04-19T09:30:32.363Z,70.08
2023-04-19T09:34:53.816Z,70.11
2023-04-19T09:38:57.181Z,69.83
2023-04-19T09:43:17.486Z,70.01
2023-04-19T09:47:25.752Z,70.28
2023-04-19T09:51:42.155Z,71.26
2023-04-19T09:55:57.779Z,71.07
2023-04-19T10:00:08.516Z,71.65
2023-04-19T10:04:25.875Z,71.85
2023-04-19T10:08:39.842Z,72.84
2023-04-19T10:12:59.194Z,72.91
2023-04-19T10:17:06.749Z,72.83
2023-04-19T10:21:13.097Z,72.54
2023-04-19T10:25:18.566Z,72.34
2023-04-19T10:30:00.909Z,72.56
2023-04-19T10:34:04.320Z,72.13
2023-04-19T10:38:10.534Z,71.50
2023-04-19T10:42:15.009Z,71.94
2023-04-19T10:46:38.884Z,73.17
2023-04-19T10:51:00.122Z,73.24
2023-04-19T10:55:05.737Z,73.59
2023-04-19T10:59:23.611Z,72.81
2023-04-19T11:03:54.565Z,72.88
2023-04-19T11:07:58.958Z,70.84
2023-04-19T11:12:04.215Z,70.61
2023-04-19T11:16:11.771Z,70.02
2023-04-19T11:20:15.502Z,68.55
2023-04-19T11:24:21.246Z,67.23
2023-04-19T11:28:24.738Z,68.57
2023-04-19T11:32:30.374Z,69.57
2023-04-19T11:36:34.168Z,69.62
2023-04-19T11:40:37.980Z,69.96
2023-04-19T11:44:41.551Z,70.18
2023-04-19T11:48:55.251Z,71.18
2023-04-19T11:52:59.790Z,70.43
2023-04-19T11:57:05.097Z,69.97
2023-04-19T12:01:10.199Z,69.41
2023-04-19T12:05:17.314Z,70.43
2023-04-19T12:09:24.242Z,71.19
2023-04-19T12:13:28.381Z,70.67
2023-04-19T12:17:31.551Z,69.69
2023-04-19T12:21:37.006Z,70.71
2023-04-19T12:25:40.628Z,71.10
2023-04-19T12:29:44.752Z,70.27
2023-04-19T12:33:47.801Z,69.87
2023-04-19T12:37:54.390Z,70.43
2023-04-19T12:41:58.101Z,69.84
2023-04-19T12:46:01.910Z,70.01
2023-04-19T12:50:06.126Z,69.28
2023-04-19T12:54:11.270Z,68.38
2023-04-19T12:58:14.592Z,69.32
2023-04-19T13:02:18.186Z,69.17
2023-04-19T13:06:21.784Z,68.89
2023-04-19T13:10:26.809Z,69.20
2023-04-19T13:14:31.085Z,70.19
2023-04-19T13:18:34.374Z,71.53
2023-04-19T13:22:37.747Z,72.36
2023-04-19T13:26:43.002Z,71.59
2023-04-19T13:30:46.668Z,71.14
2023-04-19T13:34:50.306Z,70.85
2023-04-19T13:38:53.381Z,71.20
2023-04-19T13:42:58.654Z,71.70
2023-04-19T13:47:03.715Z,72.15
2023-04-19T13:51:08.481Z,72.12
2023-04-19T13:55:11.951Z,71.12
2023-04-19T13:59:17.114Z,70.81
2023-04-19T14:03:20.944Z,70.07
2023-04-19T14:07:33.099Z,70.22
2023-04-19T14:11:38.355Z,70.39
2023-04-19T14:15:43.485Z,71.41
2023-04-19T14:19:46.699Z,71.46
2023-04-19T14:23:50.074Z,70.46
2023-04-19T14:27:53.958Z,68.36
2023-04-19T14:32:05.066Z,68.60
2023-04-19T14:36:14.198Z,69.65
2023-04-19T14:40:18.803Z,70.55
2023-04-19T14:44:22.364Z,71.21
2023-04-19T14:48:27.394Z,72.45
2023-04-19T14:52:31.087Z,72.15
2023-04-19T14:56:34.214Z,71.88
2023-04-19T15:00:37.820Z,72.55
2023-04-19T15:04:45.154Z,72.95
2023-04-19T15:08:49.100Z,74.08
2023-04-19T15:12:52.685Z,74.66
2023-04-19T15:16:56.318Z,74.69
2023-04-19T15:21:02.040Z,74.75
2023-04-19T15:25:06.145Z,74.71
2023-04-19T15:29:10.877Z,73.29
2023-04-19T15:33:14.307Z,73.03
2023-04-19T15:37:19.981Z,72.66
2023-04-19T15:41:23.575Z,72.25
2023-04-19T15:45:26.736Z,71.48
2023-04-19T15:49:32.272Z,71.12
2023-04-19T15:53:37.261Z,70.62
2023-04-19T15:57:40.974Z,70.00
2023-04-19T16:01:44.058Z,69.91
2023-04-19T16:05:50.878Z,69.74
2023-04-19T16:09:56.234Z,69.31
2023-04-19T16:13:59.283Z,70.82
2023-04-19T16:18:02.800Z,70.36
2023-04-19T16:22:07.248Z,70.59
2023-04-19T16:26:11.996Z,71.21
2023-04-19T16:30:16.448Z,71.39
2023-04-19T16:34:22.148Z,70.73
2023-04-19T16:38:25.873Z,71.27
2023-04-19T16:42:31.153Z,71.57
2023-04-19T16:46:34.277Z,71.66
2023-04-19T16:50:38.372Z,72.12
2023-04-19T16:54:43.648Z,72.30
2023-04-19T16:58:50.721Z,72.91
2023-04-19T17:02:57.035Z,73.24
2023-04-19T17:07:00.649Z,73.18
2023-04-19T17:11:03.793Z,73.29
2023-04-19T17:15:09.925Z,72.40
2023-04-19T17:19:13.217Z,72.02
2023-04-19T17:23:16.395Z,71.69
2023-04-19T17:27:19.513Z,70.39
2023-04-19T17:31:24.165Z,71.66
2023-04-19T17:35:27.612Z,71.62
2023-04-19T17:39:31.224Z,70.99
2023-04-19T17:43:34.750Z,69.64
2023-04-19T17:47:40.139Z,71.16
2023-04-19T17:51:43.919Z,71.17
2023-04-19T17:55:47.210Z,72.60
2023-04-19T17:59:50.631Z,72.14
2023-04-19T18:03:55.408Z,73.26
2023-04-19T18:08:01.224Z,72.94
2023-04-19T18:12:04.651Z,73.18
2023-04-19T18:16:07.960Z,73.90
2023-04-19T18:20:14.461Z,74.46
2023-04-19T18:24:17.877Z,74.56
2023-04-19T18:28:21.645Z,74.35
2023-04-19T18:32:29.223Z,74.54
2023-04-19T18:36:33.587Z,74.82
2023-04-19T18:40:38.619Z,74.25
2023-04-19T18:48:48.746Z,73.84
2023-04-19T18:52:53.135Z,73.91
2023-04-19T18:57:21.778Z,72.94
2023-04-19T19:01:21.067Z,73.18
2023-04-19T19:05:24.444Z,72.83
2023-04-19T19:09:29.246Z,72.66
2023-04-19T19:13:32.513Z,72.87
2023-04-19T19:17:36.410Z,72.91
2023-04-19T19:21:41.694Z,73.44
2023-04-19T19:25:51.873Z,73.57
2023-04-19T19:29:58.808Z,72.82
2023-04-19T19:34:22.692Z,72.98
2023-04-19T19:38:27.458Z,73.47
2023-04-19T19:42:34.158Z,73.53
2023-04-19T19:46:37.811Z,73.58
2023-04-19T19:54:52.549Z,72.18
2023-04-19T19:58:58.420Z,72.81
2023-04-19T20:03:02.224Z,71.99
2023-04-19T20:11:14.015Z,73.24
2023-04-19T20:15:19.302Z,73.30
2023-04-19T20:19:22.913Z,73.76
2023-04-19T20:23:28.912Z,73.85
2023-04-19T20:27:38.260Z,73.29
2023-04-19T20:31:44.446Z,74.08
2023-04-19T20:35:56.972Z,73.93
2023-04-19T20:40:00.254Z,74.39
2023-04-19T20:44:05.516Z,74.58
2023-04-19T20:48:10.935Z,74.76
2023-04-19T20:52:14.479Z,74.46
2023-04-19T20:56:18.323Z,74.31
2023-04-19T21:00:22.312Z,74.67
2023-04-19T21:04:27.976Z,74.75
2023-04-19T21:08:31.235Z,74.36
2023-04-19T21:12:35.277Z,74.55
2023-04-19T21:16:40.795Z,74.24
2023-04-19T21:20:45.394Z,74.36
2023-04-19T21:24:48.501Z,74.02
2023-04-19T21:28:53.002Z,74.22
2023-04-19T21:32:56.705Z,74.44
2023-04-19T21:37:01.551Z,74.62
2023-04-19T21:41:05.299Z,74.78
2023-04-19T21:45:09.962Z,74.70
2023-04-19T21:49:15.441Z,75.03
2023-04-19T21:53:20.195Z,75.19
2023-04-19T21:57:25.361Z,74.90
2023-04-19T22:01:29.054Z,75.38
2023-04-19T22:05:32.995Z,75.05
2023-04-19T22:09:37.551Z,75.03
2023-04-19T22:13:41.586Z,75.05
2023-04-19T22:17:46.262Z,74.92
2023-04-19T22:21:50.073Z,74.73
2023-04-19T22:25:54.749Z,74.92
2023-04-19T22:29:58.389Z,74.91
2023-04-19T22:34:01.704Z,75.10
2023-04-19T22:38:05.177Z,74.92
2023-04-19T22:42:10.318Z,74.86
2023-04-19T22:46:14.092Z,74.67
2023-04-19T22:50:18.283Z,74.45
2023-04-19T22:54:21.871Z,74.88
2023-04-19T22:58:26.414Z,74.95
2023-04-19T23:02:29.771Z,74.75
2023-04-19T23:06:34.626Z,74.89
2023-04-19T23:10:39.149Z,74.57
2023-04-19T23:14:44.011Z,75.06
2023-04-19T23:18:47.310Z,75.13
2023-04-19T23:22:51.082Z,74.83
2023-04-19T23:26:54.493Z,74.91
2023-04-19T23:30:59.722Z,74.76
2023-04-19T23:35:03.210Z,75.23
2023-04-19T23:39:08.704Z,75.24
2023-04-19T23:43:11.844Z,75.16
2023-04-19T23:47:17.383Z,75.06
2023-04-19T23:51:20.584Z,75.03
2023-04-19T23:55:24.693Z,75.41
2023-04-19T23:59:28.192Z,75.34
